sensor_id;sensor_type;location;lat;lon;timestamp;temperature;humidity
15967;DHT22;15175;48.154;11.534;2023-05-20T00:02:18;13.40;99.90
15967;DHT22;15175;48.154;11.534;2023-05-20T00:04:47;13.40;99.90
15967;DHT22;15175;48.154;11.534;2023-05-20T00:07:14;13.30;99.90
15967;DHT22;15175;48.154;11.534;2023-05-20T00:09:41;13.30;99.90
15967;DHT22;15175;48.154;11.534;2023-05-20T00:12:08;13.40;99.90
15967;DHT22;15175;48.154;11.534;2023-05-20T00:14:35;13.40;99.90
15967;DHT22;15175;48.154;11.534;2023-05-20T00:17:02;13.40;99.90
15967;DHT22;15175;48.154;11.534;2023-05-20T00:19:29;13.40;99.90
15967;DHT22;15175;48.154;11.534;2023-05-20T00:21:57;13.40;99.90
15967;DHT22;15175;48.154;11.534;2023-05-20T00:24:25;13.40;99.90
15967;DHT22;15175;48.154;11.534;2023-05-20T00:26:52;13.30;99.90
15967;DHT22;15175;48.154;11.534;2023-05-20T00:29:20;13.30;99.90
15967;DHT22;15175;48.154;11.534;2023-05-20T00:31:47;13.20;99.90
15967;DHT22;15175;48.154;11.534;2023-05-20T00:34:15;13.20;99.90
15967;DHT22;15175;48.154;11.534;2023-05-20T00:36:42;13.20;99.90
15967;DHT22;15175;48.154;11.534;2023-05-20T00:39:10;13.20;99.90
15967;DHT22;15175;48.154;11.534;2023-05-20T00:41:37;13.10;99.90
15967;DHT22;15175;48.154;11.534;2023-05-20T00:44:05;13.00;99.90
15967;DHT22;15175;48.154;11.534;2023-05-20T00:46:34;13.00;99.90
15967;DHT22;15175;48.154;11.534;2023-05-20T00:49:01;13.10;99.90
15967;DHT22;15175;48.154;11.534;2023-05-20T00:51:29;13.10;99.90
15967;DHT22;15175;48.154;11.534;2023-05-20T00:53:57;13.10;99.90
15967;DHT22;15175;48.154;11.534;2023-05-20T00:56:25;13.00;99.90
15967;DHT22;15175;48.154;11.534;2023-05-20T00:58:52;13.10;99.90
15967;DHT22;15175;48.154;11.534;2023-05-20T01:01:20;13.10;99.90
15967;DHT22;15175;48.154;11.534;2023-05-20T01:03:47;13.00;99.90
15967;DHT22;15175;48.154;11.534;2023-05-20T01:06:14;13.00;99.90
15967;DHT22;15175;48.154;11.534;2023-05-20T01:08:41;13.10;99.90
15967;DHT22;15175;48.154;11.534;2023-05-20T01:11:13;13.10;99.90
15967;DHT22;15175;48.154;11.534;2023-05-20T01:13:46;13.10;99.90
15967;DHT22;15175;48.154;11.534;2023-05-20T01:16:14;13.10;99.90
15967;DHT22;15175;48.154;11.534;2023-05-20T01:18:44;13.10;99.90
15967;DHT22;15175;48.154;11.534;2023-05-20T01:21:14;13.10;99.90
15967;DHT22;15175;48.154;11.534;2023-05-20T01:23:43;13.00;99.90
15967;DHT22;15175;48.154;11.534;2023-05-20T01:26:10;13.10;99.90
15967;DHT22;15175;48.154;11.534;2023-05-20T01:28:38;12.90;99.90
15967;DHT22;15175;48.154;11.534;2023-05-20T01:31:09;12.90;99.90
15967;DHT22;15175;48.154;11.534;2023-05-20T01:33:40;12.90;99.90
15967;DHT22;15175;48.154;11.534;2023-05-20T01:36:08;12.90;99.90
15967;DHT22;15175;48.154;11.534;2023-05-20T01:38:37;12.90;99.90
15967;DHT22;15175;48.154;11.534;2023-05-20T01:41:07;12.80;99.90
15967;DHT22;15175;48.154;11.534;2023-05-20T01:43:35;12.80;99.90
15967;DHT22;15175;48.154;11.534;2023-05-20T01:46:05;12.80;99.90
15967;DHT22;15175;48.154;11.534;2023-05-20T01:48:32;12.70;99.90
15967;DHT22;15175;48.154;11.534;2023-05-20T01:50:59;12.70;99.90
15967;DHT22;15175;48.154;11.534;2023-05-20T01:53:26;12.70;99.90
15967;DHT22;15175;48.154;11.534;2023-05-20T01:55:53;12.70;99.90
15967;DHT22;15175;48.154;11.534;2023-05-20T01:58:22;12.70;99.90
15967;DHT22;15175;48.154;11.534;2023-05-20T02:00:50;12.70;99.90
15967;DHT22;15175;48.154;11.534;2023-05-20T02:03:17;12.80;99.90
15967;DHT22;15175;48.154;11.534;2023-05-20T02:05:44;12.80;99.90
15967;DHT22;15175;48.154;11.534;2023-05-20T02:08:11;12.70;99.90
15967;DHT22;15175;48.154;11.534;2023-05-20T02:10:38;12.70;99.90
15967;DHT22;15175;48.154;11.534;2023-05-20T02:13:05;12.80;99.90
15967;DHT22;15175;48.154;11.534;2023-05-20T02:15:34;12.70;99.90
15967;DHT22;15175;48.154;11.534;2023-05-20T02:18:01;12.70;99.90
15967;DHT22;15175;48.154;11.534;2023-05-20T02:20:30;12.60;99.90
15967;DHT22;15175;48.154;11.534;2023-05-20T02:22:57;12.60;99.90
15967;DHT22;15175;48.154;11.534;2023-05-20T02:25:24;12.70;99.90
15967;DHT22;15175;48.154;11.534;2023-05-20T02:27:51;12.70;99.90
15967;DHT22;15175;48.154;11.534;2023-05-20T02:30:19;12.70;99.90
15967;DHT22;15175;48.154;11.534;2023-05-20T02:32:48;12.90;99.90
15967;DHT22;15175;48.154;11.534;2023-05-20T02:35:15;12.60;99.90
15967;DHT22;15175;48.154;11.534;2023-05-20T02:37:42;12.40;99.90
15967;DHT22;15175;48.154;11.534;2023-05-20T02:40:10;12.60;99.90
15967;DHT22;15175;48.154;11.534;2023-05-20T02:42:38;12.60;99.90
15967;DHT22;15175;48.154;11.534;2023-05-20T02:45:07;12.60;99.90
15967;DHT22;15175;48.154;11.534;2023-05-20T02:47:34;12.60;99.90
15967;DHT22;15175;48.154;11.534;2023-05-20T02:50:05;12.60;99.90
15967;DHT22;15175;48.154;11.534;2023-05-20T02:52:33;12.50;99.90
15967;DHT22;15175;48.154;11.534;2023-05-20T02:55:01;12.50;99.90
15967;DHT22;15175;48.154;11.534;2023-05-20T02:57:29;12.50;99.90
15967;DHT22;15175;48.154;11.534;2023-05-20T02:59:57;12.50;99.90
15967;DHT22;15175;48.154;11.534;2023-05-20T03:02:24;12.50;99.90
15967;DHT22;15175;48.154;11.534;2023-05-20T03:04:51;12.60;99.90
15967;DHT22;15175;48.154;11.534;2023-05-20T03:07:21;12.60;99.90
15967;DHT22;15175;48.154;11.534;2023-05-20T03:09:48;12.60;99.90
15967;DHT22;15175;48.154;11.534;2023-05-20T03:12:17;12.60;99.90
15967;DHT22;15175;48.154;11.534;2023-05-20T03:14:44;12.50;99.90
15967;DHT22;15175;48.154;11.534;2023-05-20T03:17:12;12.50;99.90
15967;DHT22;15175;48.154;11.534;2023-05-20T03:19:39;12.50;99.90
15967;DHT22;15175;48.154;11.534;2023-05-20T03:22:06;12.50;99.90
15967;DHT22;15175;48.154;11.534;2023-05-20T03:24:35;12.50;99.90
15967;DHT22;15175;48.154;11.534;2023-05-20T03:27:02;12.40;99.90
15967;DHT22;15175;48.154;11.534;2023-05-20T03:29:29;12.40;99.90
15967;DHT22;15175;48.154;11.534;2023-05-20T03:31:58;12.40;99.90
15967;DHT22;15175;48.154;11.534;2023-05-20T03:34:25;12.40;99.90
15967;DHT22;15175;48.154;11.534;2023-05-20T03:36:53;12.50;99.90
15967;DHT22;15175;48.154;11.534;2023-05-20T03:39:20;12.50;99.90
15967;DHT22;15175;48.154;11.534;2023-05-20T03:41:49;12.40;99.90
15967;DHT22;15175;48.154;11.534;2023-05-20T03:44:16;12.40;99.90
15967;DHT22;15175;48.154;11.534;2023-05-20T03:46:44;12.50;99.90
15967;DHT22;15175;48.154;11.534;2023-05-20T03:49:12;12.50;99.90
15967;DHT22;15175;48.154;11.534;2023-05-20T03:51:39;12.50;99.90
15967;DHT22;15175;48.154;11.534;2023-05-20T03:54:10;12.50;99.90
15967;DHT22;15175;48.154;11.534;2023-05-20T03:56:38;12.60;99.90
15967;DHT22;15175;48.154;11.534;2023-05-20T03:59:06;12.50;99.90
15967;DHT22;15175;48.154;11.534;2023-05-20T04:01:34;12.50;99.90
15967;DHT22;15175;48.154;11.534;2023-05-20T04:04:02;12.50;99.90
15967;DHT22;15175;48.154;11.534;2023-05-20T04:06:29;12.50;99.90
15967;DHT22;15175;48.154;11.534;2023-05-20T04:08:58;12.40;99.90
15967;DHT22;15175;48.154;11.534;2023-05-20T04:11:25;12.40;99.90
15967;DHT22;15175;48.154;11.534;2023-05-20T04:13:52;12.40;99.90
15967;DHT22;15175;48.154;11.534;2023-05-20T04:16:21;12.40;99.90
15967;DHT22;15175;48.154;11.534;2023-05-20T04:18:49;12.40;99.90
15967;DHT22;15175;48.154;11.534;2023-05-20T04:21:17;12.50;99.90
15967;DHT22;15175;48.154;11.534;2023-05-20T04:23:45;12.50;99.90
15967;DHT22;15175;48.154;11.534;2023-05-20T04:26:12;12.40;99.90
15967;DHT22;15175;48.154;11.534;2023-05-20T04:28:39;12.40;99.90
15967;DHT22;15175;48.154;11.534;2023-05-20T04:31:07;12.50;99.90
15967;DHT22;15175;48.154;11.534;2023-05-20T04:33:37;12.50;99.90
15967;DHT22;15175;48.154;11.534;2023-05-20T04:36:06;12.50;99.90
15967;DHT22;15175;48.154;11.534;2023-05-20T04:38:34;12.60;99.90
15967;DHT22;15175;48.154;11.534;2023-05-20T04:41:02;12.60;99.90
15967;DHT22;15175;48.154;11.534;2023-05-20T04:43:29;12.50;99.90
15967;DHT22;15175;48.154;11.534;2023-05-20T04:45:58;12.50;99.90
15967;DHT22;15175;48.154;11.534;2023-05-20T04:48:31;12.50;99.90
15967;DHT22;15175;48.154;11.534;2023-05-20T04:50:59;12.40;99.90
15967;DHT22;15175;48.154;11.534;2023-05-20T04:53:26;12.40;99.90
15967;DHT22;15175;48.154;11.534;2023-05-20T04:55:55;12.40;99.90
15967;DHT22;15175;48.154;11.534;2023-05-20T04:58:23;12.40;99.90
15967;DHT22;15175;48.154;11.534;2023-05-20T05:00:50;12.40;99.90
15967;DHT22;15175;48.154;11.534;2023-05-20T05:03:18;12.40;99.90
15967;DHT22;15175;48.154;11.534;2023-05-20T05:05:45;12.40;99.90
15967;DHT22;15175;48.154;11.534;2023-05-20T05:08:15;12.50;99.90
15967;DHT22;15175;48.154;11.534;2023-05-20T05:10:47;12.30;99.90
15967;DHT22;15175;48.154;11.534;2023-05-20T05:13:15;12.50;99.90
15967;DHT22;15175;48.154;11.534;2023-05-20T05:15:42;12.50;99.90
15967;DHT22;15175;48.154;11.534;2023-05-20T05:18:11;12.50;99.90
15967;DHT22;15175;48.154;11.534;2023-05-20T05:20:38;12.50;99.90
15967;DHT22;15175;48.154;11.534;2023-05-20T05:23:05;12.40;99.90
15967;DHT22;15175;48.154;11.534;2023-05-20T05:25:34;12.40;99.90
15967;DHT22;15175;48.154;11.534;2023-05-20T05:28:01;12.40;99.90
15967;DHT22;15175;48.154;11.534;2023-05-20T05:30:29;12.50;99.90
15967;DHT22;15175;48.154;11.534;2023-05-20T05:32:56;12.50;99.90
15967;DHT22;15175;48.154;11.534;2023-05-20T05:35:23;12.40;99.90
15967;DHT22;15175;48.154;11.534;2023-05-20T05:37:50;12.50;99.90
15967;DHT22;15175;48.154;11.534;2023-05-20T05:40:18;12.40;99.90
15967;DHT22;15175;48.154;11.534;2023-05-20T05:42:47;12.40;99.90
15967;DHT22;15175;48.154;11.534;2023-05-20T05:45:15;12.50;99.90
15967;DHT22;15175;48.154;11.534;2023-05-20T05:47:42;12.60;99.90
15967;DHT22;15175;48.154;11.534;2023-05-20T05:50:09;12.70;99.90
15967;DHT22;15175;48.154;11.534;2023-05-20T05:52:37;12.80;99.90
15967;DHT22;15175;48.154;11.534;2023-05-20T05:55:08;12.80;99.90
15967;DHT22;15175;48.154;11.534;2023-05-20T05:57:35;12.90;99.90
15967;DHT22;15175;48.154;11.534;2023-05-20T06:00:05;12.90;99.90
15967;DHT22;15175;48.154;11.534;2023-05-20T06:02:43;12.80;99.90
15967;DHT22;15175;48.154;11.534;2023-05-20T06:05:12;12.80;99.90
15967;DHT22;15175;48.154;11.534;2023-05-20T06:07:44;12.70;99.90
15967;DHT22;15175;48.154;11.534;2023-05-20T06:10:11;12.70;99.90
15967;DHT22;15175;48.154;11.534;2023-05-20T06:12:38;12.70;99.90
15967;DHT22;15175;48.154;11.534;2023-05-20T06:15:08;12.50;99.90
15967;DHT22;15175;48.154;11.534;2023-05-20T06:17:35;12.60;99.90
15967;DHT22;15175;48.154;11.534;2023-05-20T06:20:03;12.70;99.90
15967;DHT22;15175;48.154;11.534;2023-05-20T06:22:30;12.70;99.90
15967;DHT22;15175;48.154;11.534;2023-05-20T06:24:57;12.80;99.90
15967;DHT22;15175;48.154;11.534;2023-05-20T06:27:28;12.80;99.90
15967;DHT22;15175;48.154;11.534;2023-05-20T06:29:56;12.80;99.90
15967;DHT22;15175;48.154;11.534;2023-05-20T06:32:24;12.90;99.90
15967;DHT22;15175;48.154;11.534;2023-05-20T06:34:52;12.80;99.90
15967;DHT22;15175;48.154;11.534;2023-05-20T06:37:19;13.00;99.90
15967;DHT22;15175;48.154;11.534;2023-05-20T06:39:50;13.00;99.90
15967;DHT22;15175;48.154;11.534;2023-05-20T06:42:19;13.10;99.90
15967;DHT22;15175;48.154;11.534;2023-05-20T06:45:01;13.10;99.90
15967;DHT22;15175;48.154;11.534;2023-05-20T06:47:58;13.20;99.90
15967;DHT22;15175;48.154;11.534;2023-05-20T06:50:25;13.20;99.90
15967;DHT22;15175;48.154;11.534;2023-05-20T06:52:53;13.30;99.90
15967;DHT22;15175;48.154;11.534;2023-05-20T06:55:21;13.30;99.90
15967;DHT22;15175;48.154;11.534;2023-05-20T06:57:49;13.30;99.90
15967;DHT22;15175;48.154;11.534;2023-05-20T07:00:17;13.30;99.90
15967;DHT22;15175;48.154;11.534;2023-05-20T07:02:45;13.40;99.90
15967;DHT22;15175;48.154;11.534;2023-05-20T07:05:15;13.50;99.90
15967;DHT22;15175;48.154;11.534;2023-05-20T07:07:42;13.40;99.90
15967;DHT22;15175;48.154;11.534;2023-05-20T07:10:09;13.50;99.90
15967;DHT22;15175;48.154;11.534;2023-05-20T07:12:36;13.70;99.90
15967;DHT22;15175;48.154;11.534;2023-05-20T07:15:04;13.60;99.90
15967;DHT22;15175;48.154;11.534;2023-05-20T07:17:33;13.80;99.90
15967;DHT22;15175;48.154;11.534;2023-05-20T07:20:00;13.80;99.90
15967;DHT22;15175;48.154;11.534;2023-05-20T07:22:30;13.90;99.90
15967;DHT22;15175;48.154;11.534;2023-05-20T07:25:08;14.10;99.90
15967;DHT22;15175;48.154;11.534;2023-05-20T07:27:36;14.10;99.90
15967;DHT22;15175;48.154;11.534;2023-05-20T07:30:04;14.30;99.90
15967;DHT22;15175;48.154;11.534;2023-05-20T07:32:32;14.30;99.90
15967;DHT22;15175;48.154;11.534;2023-05-20T07:34:59;14.30;99.90
15967;DHT22;15175;48.154;11.534;2023-05-20T07:37:27;14.10;99.90
15967;DHT22;15175;48.154;11.534;2023-05-20T07:39:56;14.00;99.90
15967;DHT22;15175;48.154;11.534;2023-05-20T07:42:23;14.00;99.90
15967;DHT22;15175;48.154;11.534;2023-05-20T07:44:55;13.90;99.90
15967;DHT22;15175;48.154;11.534;2023-05-20T07:47:22;14.00;99.90
15967;DHT22;15175;48.154;11.534;2023-05-20T07:49:49;14.10;99.90
15967;DHT22;15175;48.154;11.534;2023-05-20T07:52:16;14.30;99.90
15967;DHT22;15175;48.154;11.534;2023-05-20T07:54:43;14.40;99.90
15967;DHT22;15175;48.154;11.534;2023-05-20T07:57:12;14.70;99.90
15967;DHT22;15175;48.154;11.534;2023-05-20T07:59:40;14.80;99.90
15967;DHT22;15175;48.154;11.534;2023-05-20T08:02:07;14.70;99.90
15967;DHT22;15175;48.154;11.534;2023-05-20T08:04:35;14.80;99.90
15967;DHT22;15175;48.154;11.534;2023-05-20T08:07:02;14.90;99.90
15967;DHT22;15175;48.154;11.534;2023-05-20T08:09:52;15.20;99.90
15967;DHT22;15175;48.154;11.534;2023-05-20T08:12:21;16.00;99.90
15967;DHT22;15175;48.154;11.534;2023-05-20T08:14:49;17.20;99.90
15967;DHT22;15175;48.154;11.534;2023-05-20T08:17:16;18.40;99.90
15967;DHT22;15175;48.154;11.534;2023-05-20T08:19:43;19.60;99.90
15967;DHT22;15175;48.154;11.534;2023-05-20T08:22:13;20.10;99.90
15967;DHT22;15175;48.154;11.534;2023-05-20T08:24:40;20.00;99.90
15967;DHT22;15175;48.154;11.534;2023-05-20T08:27:07;20.50;99.90
15967;DHT22;15175;48.154;11.534;2023-05-20T08:29:35;21.00;99.90
15967;DHT22;15175;48.154;11.534;2023-05-20T08:32:04;21.00;99.90
15967;DHT22;15175;48.154;11.534;2023-05-20T08:34:33;20.70;99.90
15967;DHT22;15175;48.154;11.534;2023-05-20T08:37:01;20.90;99.90
15967;DHT22;15175;48.154;11.534;2023-05-20T08:39:28;21.20;99.90
15967;DHT22;15175;48.154;11.534;2023-05-20T08:41:57;21.20;99.90
15967;DHT22;15175;48.154;11.534;2023-05-20T08:44:25;20.80;99.90
15967;DHT22;15175;48.154;11.534;2023-05-20T08:46:55;20.60;99.90
15967;DHT22;15175;48.154;11.534;2023-05-20T08:49:23;20.60;99.90
15967;DHT22;15175;48.154;11.534;2023-05-20T08:51:50;20.60;99.90
15967;DHT22;15175;48.154;11.534;2023-05-20T08:54:18;20.50;99.90
15967;DHT22;15175;48.154;11.534;2023-05-20T08:56:48;20.50;99.90
15967;DHT22;15175;48.154;11.534;2023-05-20T08:59:16;20.30;99.90
15967;DHT22;15175;48.154;11.534;2023-05-20T09:01:44;20.10;99.90
15967;DHT22;15175;48.154;11.534;2023-05-20T09:04:12;20.20;99.90
15967;DHT22;15175;48.154;11.534;2023-05-20T09:06:43;20.10;99.90
15967;DHT22;15175;48.154;11.534;2023-05-20T09:09:10;20.00;99.90
15967;DHT22;15175;48.154;11.534;2023-05-20T09:11:38;19.70;99.90
15967;DHT22;15175;48.154;11.534;2023-05-20T09:14:06;19.70;99.90
15967;DHT22;15175;48.154;11.534;2023-05-20T09:16:33;19.60;99.90
15967;DHT22;15175;48.154;11.534;2023-05-20T09:19:00;19.60;99.90
15967;DHT22;15175;48.154;11.534;2023-05-20T09:21:29;19.80;99.90
15967;DHT22;15175;48.154;11.534;2023-05-20T09:23:56;19.90;99.90
15967;DHT22;15175;48.154;11.534;2023-05-20T09:26:26;20.00;99.90
15967;DHT22;15175;48.154;11.534;2023-05-20T09:28:55;20.10;99.90
15967;DHT22;15175;48.154;11.534;2023-05-20T09:31:25;20.10;99.90
15967;DHT22;15175;48.154;11.534;2023-05-20T09:33:53;20.10;99.90
15967;DHT22;15175;48.154;11.534;2023-05-20T09:36:21;20.20;99.90
15967;DHT22;15175;48.154;11.534;2023-05-20T09:38:51;20.20;99.90
15967;DHT22;15175;48.154;11.534;2023-05-20T09:41:20;20.10;99.90
15967;DHT22;15175;48.154;11.534;2023-05-20T09:43:49;20.00;99.90
15967;DHT22;15175;48.154;11.534;2023-05-20T09:46:17;20.10;99.90
15967;DHT22;15175;48.154;11.534;2023-05-20T09:48:44;20.10;99.90
15967;DHT22;15175;48.154;11.534;2023-05-20T09:51:13;20.10;99.90
15967;DHT22;15175;48.154;11.534;2023-05-20T09:53:40;20.10;99.90
15967;DHT22;15175;48.154;11.534;2023-05-20T09:56:09;20.10;99.90
15967;DHT22;15175;48.154;11.534;2023-05-20T09:58:37;20.10;99.90
15967;DHT22;15175;48.154;11.534;2023-05-20T10:01:05;19.90;99.90
15967;DHT22;15175;48.154;11.534;2023-05-20T10:03:33;19.80;99.90
15967;DHT22;15175;48.154;11.534;2023-05-20T10:06:21;19.90;99.90
15967;DHT22;15175;48.154;11.534;2023-05-20T10:09:01;20.10;99.90
15967;DHT22;15175;48.154;11.534;2023-05-20T10:11:39;20.30;99.90
15967;DHT22;15175;48.154;11.534;2023-05-20T10:14:21;20.40;99.90
15967;DHT22;15175;48.154;11.534;2023-05-20T10:16:53;20.40;99.90
15967;DHT22;15175;48.154;11.534;2023-05-20T10:19:27;20.30;99.90
15967;DHT22;15175;48.154;11.534;2023-05-20T10:21:59;20.10;99.90
15967;DHT22;15175;48.154;11.534;2023-05-20T10:24:30;20.00;99.90
15967;DHT22;15175;48.154;11.534;2023-05-20T10:27:01;19.90;99.90
15967;DHT22;15175;48.154;11.534;2023-05-20T10:29:28;19.80;99.90
15967;DHT22;15175;48.154;11.534;2023-05-20T10:31:56;19.70;99.90
15967;DHT22;15175;48.154;11.534;2023-05-20T10:34:23;19.70;99.90
15967;DHT22;15175;48.154;11.534;2023-05-20T10:36:59;19.70;99.90
15967;DHT22;15175;48.154;11.534;2023-05-20T10:39:27;19.80;99.90
15967;DHT22;15175;48.154;11.534;2023-05-20T10:42:06;19.90;99.90
15967;DHT22;15175;48.154;11.534;2023-05-20T10:44:40;20.20;99.90
15967;DHT22;15175;48.154;11.534;2023-05-20T10:47:08;20.50;99.90
15967;DHT22;15175;48.154;11.534;2023-05-20T10:49:39;20.70;99.90
15967;DHT22;15175;48.154;11.534;2023-05-20T10:52:08;21.00;99.90
15967;DHT22;15175;48.154;11.534;2023-05-20T10:54:41;21.20;99.90
15967;DHT22;15175;48.154;11.534;2023-05-20T10:57:11;21.40;99.90
15967;DHT22;15175;48.154;11.534;2023-05-20T10:59:39;21.60;99.90
15967;DHT22;15175;48.154;11.534;2023-05-20T11:02:07;21.50;99.90
15967;DHT22;15175;48.154;11.534;2023-05-20T11:04:38;21.50;99.90
15967;DHT22;15175;48.154;11.534;2023-05-20T11:07:05;21.60;99.90
15967;DHT22;15175;48.154;11.534;2023-05-20T11:09:32;21.60;99.90
15967;DHT22;15175;48.154;11.534;2023-05-20T11:11:59;21.70;99.90
15967;DHT22;15175;48.154;11.534;2023-05-20T11:14:29;21.90;99.90
15967;DHT22;15175;48.154;11.534;2023-05-20T11:16:56;22.10;99.90
15967;DHT22;15175;48.154;11.534;2023-05-20T11:19:24;22.30;99.90
15967;DHT22;15175;48.154;11.534;2023-05-20T11:21:51;22.20;99.90
15967;DHT22;15175;48.154;11.534;2023-05-20T11:24:22;22.10;99.90
15967;DHT22;15175;48.154;11.534;2023-05-20T11:26:50;22.20;99.90
15967;DHT22;15175;48.154;11.534;2023-05-20T11:29:18;22.30;99.90
15967;DHT22;15175;48.154;11.534;2023-05-20T11:31:49;22.60;99.90
15967;DHT22;15175;48.154;11.534;2023-05-20T11:34:19;22.80;99.90
15967;DHT22;15175;48.154;11.534;2023-05-20T11:36:47;22.90;99.90
15967;DHT22;15175;48.154;11.534;2023-05-20T11:39:15;23.00;99.90
15967;DHT22;15175;48.154;11.534;2023-05-20T11:41:42;22.90;99.90
15967;DHT22;15175;48.154;11.534;2023-05-20T11:44:10;22.90;99.90
15967;DHT22;15175;48.154;11.534;2023-05-20T11:46:41;22.90;99.90
15967;DHT22;15175;48.154;11.534;2023-05-20T11:49:12;22.90;99.90
15967;DHT22;15175;48.154;11.534;2023-05-20T11:51:39;23.00;99.90
15967;DHT22;15175;48.154;11.534;2023-05-20T11:54:07;22.80;99.90
15967;DHT22;15175;48.154;11.534;2023-05-20T11:56:35;22.90;99.90
15967;DHT22;15175;48.154;11.534;2023-05-20T11:59:03;23.00;99.90
15967;DHT22;15175;48.154;11.534;2023-05-20T12:01:32;22.90;99.90
15967;DHT22;15175;48.154;11.534;2023-05-20T12:04:03;22.90;99.90
15967;DHT22;15175;48.154;11.534;2023-05-20T12:06:32;22.90;99.90
15967;DHT22;15175;48.154;11.534;2023-05-20T12:09:02;22.90;99.90
15967;DHT22;15175;48.154;11.534;2023-05-20T12:11:32;22.90;99.90
15967;DHT22;15175;48.154;11.534;2023-05-20T12:13:59;23.00;99.90
15967;DHT22;15175;48.154;11.534;2023-05-20T12:16:26;23.10;99.90
15967;DHT22;15175;48.154;11.534;2023-05-20T12:18:53;23.30;99.90
15967;DHT22;15175;48.154;11.534;2023-05-20T12:21:20;23.40;99.90
15967;DHT22;15175;48.154;11.534;2023-05-20T12:23:48;23.30;99.90
15967;DHT22;15175;48.154;11.534;2023-05-20T12:26:15;23.30;99.90
15967;DHT22;15175;48.154;11.534;2023-05-20T12:28:42;23.30;99.90
15967;DHT22;15175;48.154;11.534;2023-05-20T12:31:09;23.20;99.90
15967;DHT22;15175;48.154;11.534;2023-05-20T12:33:36;23.10;99.90
15967;DHT22;15175;48.154;11.534;2023-05-20T12:36:04;23.10;99.90
15967;DHT22;15175;48.154;11.534;2023-05-20T12:38:31;23.10;99.90
15967;DHT22;15175;48.154;11.534;2023-05-20T12:41:00;23.00;99.90
15967;DHT22;15175;48.154;11.534;2023-05-20T12:43:27;23.00;99.90
15967;DHT22;15175;48.154;11.534;2023-05-20T12:45:54;23.00;99.90
15967;DHT22;15175;48.154;11.534;2023-05-20T12:48:21;23.10;99.90
15967;DHT22;15175;48.154;11.534;2023-05-20T12:50:48;23.00;99.90
15967;DHT22;15175;48.154;11.534;2023-05-20T12:53:15;23.10;99.90
15967;DHT22;15175;48.154;11.534;2023-05-20T12:55:42;23.20;99.90
15967;DHT22;15175;48.154;11.534;2023-05-20T12:58:11;23.20;99.90
15967;DHT22;15175;48.154;11.534;2023-05-20T13:00:38;23.20;99.90
15967;DHT22;15175;48.154;11.534;2023-05-20T13:03:05;23.40;99.90
15967;DHT22;15175;48.154;11.534;2023-05-20T13:05:32;23.30;99.90
15967;DHT22;15175;48.154;11.534;2023-05-20T13:07:59;23.30;99.90
15967;DHT22;15175;48.154;11.534;2023-05-20T13:10:26;23.40;99.90
15967;DHT22;15175;48.154;11.534;2023-05-20T13:12:54;23.30;99.90
15967;DHT22;15175;48.154;11.534;2023-05-20T13:15:23;23.20;99.90
15967;DHT22;15175;48.154;11.534;2023-05-20T13:17:50;23.10;99.90
15967;DHT22;15175;48.154;11.534;2023-05-20T13:20:17;23.10;99.90
15967;DHT22;15175;48.154;11.534;2023-05-20T13:22:44;23.10;99.90
15967;DHT22;15175;48.154;11.534;2023-05-20T13:25:11;23.10;99.90
15967;DHT22;15175;48.154;11.534;2023-05-20T13:27:38;23.10;99.90
15967;DHT22;15175;48.154;11.534;2023-05-20T13:30:06;23.00;99.90
15967;DHT22;15175;48.154;11.534;2023-05-20T13:32:35;23.10;99.90
15967;DHT22;15175;48.154;11.534;2023-05-20T13:35:02;23.10;99.90
15967;DHT22;15175;48.154;11.534;2023-05-20T13:37:29;23.00;99.90
15967;DHT22;15175;48.154;11.534;2023-05-20T13:39:56;23.00;99.90
15967;DHT22;15175;48.154;11.534;2023-05-20T13:42:23;23.00;99.90
15967;DHT22;15175;48.154;11.534;2023-05-20T13:44:50;22.90;99.90
15967;DHT22;15175;48.154;11.534;2023-05-20T13:47:17;22.90;99.90
15967;DHT22;15175;48.154;11.534;2023-05-20T13:49:45;22.80;99.90
15967;DHT22;15175;48.154;11.534;2023-05-20T13:52:12;22.80;99.90
15967;DHT22;15175;48.154;11.534;2023-05-20T13:54:39;22.80;99.90
15967;DHT22;15175;48.154;11.534;2023-05-20T13:57:07;22.90;99.90
15967;DHT22;15175;48.154;11.534;2023-05-20T13:59:34;22.90;99.90
15967;DHT22;15175;48.154;11.534;2023-05-20T14:02:02;22.80;99.90
15967;DHT22;15175;48.154;11.534;2023-05-20T14:04:29;22.70;99.90
15967;DHT22;15175;48.154;11.534;2023-05-20T14:07:03;22.70;99.90
15967;DHT22;15175;48.154;11.534;2023-05-20T14:09:30;22.70;99.90
15967;DHT22;15175;48.154;11.534;2023-05-20T14:11:57;22.70;99.90
15967;DHT22;15175;48.154;11.534;2023-05-20T14:14:24;22.60;99.90
15967;DHT22;15175;48.154;11.534;2023-05-20T14:16:51;22.60;99.90
15967;DHT22;15175;48.154;11.534;2023-05-20T14:19:18;22.60;99.90
15967;DHT22;15175;48.154;11.534;2023-05-20T14:21:45;22.50;99.90
15967;DHT22;15175;48.154;11.534;2023-05-20T14:24:14;22.50;99.90
15967;DHT22;15175;48.154;11.534;2023-05-20T14:26:41;22.40;99.90
15967;DHT22;15175;48.154;11.534;2023-05-20T14:29:08;22.40;99.90
15967;DHT22;15175;48.154;11.534;2023-05-20T14:31:35;22.30;99.90
15967;DHT22;15175;48.154;11.534;2023-05-20T14:34:03;22.20;99.90
15967;DHT22;15175;48.154;11.534;2023-05-20T14:36:30;22.20;99.90
15967;DHT22;15175;48.154;11.534;2023-05-20T14:38:57;22.20;99.90
15967;DHT22;15175;48.154;11.534;2023-05-20T14:41:25;22.10;99.90
15967;DHT22;15175;48.154;11.534;2023-05-20T14:43:53;22.10;99.90
15967;DHT22;15175;48.154;11.534;2023-05-20T14:46:20;22.00;99.90
15967;DHT22;15175;48.154;11.534;2023-05-20T14:48:47;22.00;99.90
15967;DHT22;15175;48.154;11.534;2023-05-20T14:51:14;22.00;99.90
15967;DHT22;15175;48.154;11.534;2023-05-20T14:53:41;21.90;99.90
15967;DHT22;15175;48.154;11.534;2023-05-20T14:56:08;21.90;99.90
15967;DHT22;15175;48.154;11.534;2023-05-20T14:58:37;21.90;99.90
15967;DHT22;15175;48.154;11.534;2023-05-20T15:01:05;21.80;99.90
15967;DHT22;15175;48.154;11.534;2023-05-20T15:03:34;21.80;99.90
15967;DHT22;15175;48.154;11.534;2023-05-20T15:06:01;21.70;99.90
15967;DHT22;15175;48.154;11.534;2023-05-20T15:08:28;21.70;99.90
15967;DHT22;15175;48.154;11.534;2023-05-20T15:10:56;21.80;99.90
15967;DHT22;15175;48.154;11.534;2023-05-20T15:13:23;21.80;99.90
15967;DHT22;15175;48.154;11.534;2023-05-20T15:15:52;21.80;99.90
15967;DHT22;15175;48.154;11.534;2023-05-20T15:18:19;21.80;99.90
15967;DHT22;15175;48.154;11.534;2023-05-20T15:20:46;21.80;99.90
15967;DHT22;15175;48.154;11.534;2023-05-20T15:23:13;21.80;99.90